sensor_id;sensor_type;location;lat;lon;timestamp;P1;durP1;ratioP1;P2;durP2;ratioP2
4023;SDS011;2026;51.002;13.668;2023-06-04T00:01:12;10.00;;;6.33;;
4023;SDS011;2026;51.002;13.668;2023-06-04T00:06:18;10.87;;;5.90;;
4023;SDS011;2026;51.002;13.668;2023-06-04T00:11:21;9.60;;;6.70;;
4023;SDS011;2026;51.002;13.668;2023-06-04T00:16:24;8.10;;;6.57;;
4023;SDS011;2026;51.002;13.668;2023-06-04T00:21:29;10.43;;;6.93;;
4023;SDS011;2026;51.002;13.668;2023-06-04T00:26:32;10.43;;;6.93;;
4023;SDS011;2026;51.002;13.668;2023-06-04T00:31:35;10.67;;;7.00;;
4023;SDS011;2026;51.002;13.668;2023-06-04T00:36:40;9.00;;;6.63;;
4023;SDS011;2026;51.002;13.668;2023-06-04T00:41:43;8.83;;;6.80;;
4023;SDS011;2026;51.002;13.668;2023-06-04T00:46:46;10.30;;;6.83;;
4023;SDS011;2026;51.002;13.668;2023-06-04T00:51:52;8.63;;;6.90;;
4023;SDS011;2026;51.002;13.668;2023-06-04T00:56:55;9.33;;;7.07;;
4023;SDS011;2026;51.002;13.668;2023-06-04T01:01:58;9.90;;;7.47;;
4023;SDS011;2026;51.002;13.668;2023-06-04T01:07:06;9.40;;;6.40;;
4023;SDS011;2026;51.002;13.668;2023-06-04T01:12:11;8.73;;;6.77;;
4023;SDS011;2026;51.002;13.668;2023-06-04T01:17:15;9.80;;;6.40;;
4023;SDS011;2026;51.002;13.668;2023-06-04T01:22:27;7.80;;;5.93;;
4023;SDS011;2026;51.002;13.668;2023-06-04T01:27:35;9.90;;;7.63;;
4023;SDS011;2026;51.002;13.668;2023-06-04T01:32:39;12.33;;;7.23;;
4023;SDS011;2026;51.002;13.668;2023-06-04T01:37:43;10.00;;;8.03;;
4023;SDS011;2026;51.002;13.668;2023-06-04T01:42:46;8.17;;;7.10;;
4023;SDS011;2026;51.002;13.668;2023-06-04T01:47:49;8.20;;;5.90;;
4023;SDS011;2026;51.002;13.668;2023-06-04T01:52:55;8.50;;;6.07;;
4023;SDS011;2026;51.002;13.668;2023-06-04T01:57:58;6.43;;;5.10;;
4023;SDS011;2026;51.002;13.668;2023-06-04T02:03:01;8.20;;;5.10;;
4023;SDS011;2026;51.002;13.668;2023-06-04T02:08:07;10.87;;;5.40;;
4023;SDS011;2026;51.002;13.668;2023-06-04T02:13:10;10.37;;;6.80;;
4023;SDS011;2026;51.002;13.668;2023-06-04T02:18:14;12.67;;;8.27;;
4023;SDS011;2026;51.002;13.668;2023-06-04T02:23:20;17.63;;;11.27;;
4023;SDS011;2026;51.002;13.668;2023-06-04T02:28:23;22.30;;;13.30;;
4023;SDS011;2026;51.002;13.668;2023-06-04T02:33:27;24.63;;;15.00;;
4023;SDS011;2026;51.002;13.668;2023-06-04T02:38:31;26.20;;;15.67;;
4023;SDS011;2026;51.002;13.668;2023-06-04T02:43:34;30.80;;;17.97;;
4023;SDS011;2026;51.002;13.668;2023-06-04T02:48:38;31.47;;;19.20;;
4023;SDS011;2026;51.002;13.668;2023-06-04T02:53:43;31.83;;;17.93;;
4023;SDS011;2026;51.002;13.668;2023-06-04T02:58:50;22.33;;;14.43;;
4023;SDS011;2026;51.002;13.668;2023-06-04T03:03:54;14.90;;;9.80;;
4023;SDS011;2026;51.002;13.668;2023-06-04T03:09:00;21.60;;;11.83;;
4023;SDS011;2026;51.002;13.668;2023-06-04T03:14:03;16.47;;;10.30;;
4023;SDS011;2026;51.002;13.668;2023-06-04T03:19:07;12.00;;;8.57;;
4023;SDS011;2026;51.002;13.668;2023-06-04T03:24:11;11.17;;;7.20;;
4023;SDS011;2026;51.002;13.668;2023-06-04T03:29:14;8.60;;;6.53;;
4023;SDS011;2026;51.002;13.668;2023-06-04T03:34:17;11.33;;;6.57;;
4023;SDS011;2026;51.002;13.668;2023-06-04T03:39:22;10.60;;;6.33;;
4023;SDS011;2026;51.002;13.668;2023-06-04T03:44:26;8.50;;;5.40;;
4023;SDS011;2026;51.002;13.668;2023-06-04T03:49:30;9.33;;;6.37;;
4023;SDS011;2026;51.002;13.668;2023-06-04T03:54:35;8.70;;;5.60;;
4023;SDS011;2026;51.002;13.668;2023-06-04T03:59:38;6.60;;;5.03;;
4023;SDS011;2026;51.002;13.668;2023-06-04T04:04:42;6.57;;;5.00;;
4023;SDS011;2026;51.002;13.668;2023-06-04T04:09:46;7.83;;;4.93;;
4023;SDS011;2026;51.002;13.668;2023-06-04T04:14:49;6.37;;;4.80;;
4023;SDS011;2026;51.002;13.668;2023-06-04T04:27:00;7.20;;;4.80;;
4023;SDS011;2026;51.002;13.668;2023-06-04T04:32:06;7.23;;;4.50;;
4023;SDS011;2026;51.002;13.668;2023-06-04T04:37:16;7.33;;;4.60;;
4023;SDS011;2026;51.002;13.668;2023-06-04T04:42:25;5.10;;;4.43;;
4023;SDS011;2026;51.002;13.668;2023-06-04T04:47:28;8.50;;;4.83;;
4023;SDS011;2026;51.002;13.668;2023-06-04T04:52:32;9.83;;;5.23;;
4023;SDS011;2026;51.002;13.668;2023-06-04T04:57:36;7.13;;;5.07;;
4023;SDS011;2026;51.002;13.668;2023-06-04T05:02:39;6.20;;;4.27;;
4023;SDS011;2026;51.002;13.668;2023-06-04T05:07:43;4.03;;;3.50;;
4023;SDS011;2026;51.002;13.668;2023-06-04T05:12:54;3.67;;;2.73;;
4023;SDS011;2026;51.002;13.668;2023-06-04T05:18:03;3.20;;;2.23;;
4023;SDS011;2026;51.002;13.668;2023-06-04T05:23:10;4.50;;;2.70;;
4023;SDS011;2026;51.002;13.668;2023-06-04T05:28:18;3.90;;;2.47;;
4023;SDS011;2026;51.002;13.668;2023-06-04T05:33:22;2.83;;;2.27;;
4023;SDS011;2026;51.002;13.668;2023-06-04T05:38:30;6.53;;;2.93;;
4023;SDS011;2026;51.002;13.668;2023-06-04T05:43:40;4.33;;;2.80;;
4023;SDS011;2026;51.002;13.668;2023-06-04T05:48:48;5.53;;;2.50;;
4023;SDS011;2026;51.002;13.668;2023-06-04T05:53:53;3.50;;;2.73;;
4023;SDS011;2026;51.002;13.668;2023-06-04T05:58:58;3.83;;;2.70;;
4023;SDS011;2026;51.002;13.668;2023-06-04T06:04:01;3.60;;;2.57;;
4023;SDS011;2026;51.002;13.668;2023-06-04T06:09:05;4.47;;;3.00;;
4023;SDS011;2026;51.002;13.668;2023-06-04T06:14:09;4.10;;;2.83;;
4023;SDS011;2026;51.002;13.668;2023-06-04T06:19:14;4.70;;;2.83;;
4023;SDS011;2026;51.002;13.668;2023-06-04T06:24:18;3.50;;;2.77;;
4023;SDS011;2026;51.002;13.668;2023-06-04T06:29:23;5.77;;;3.10;;
4023;SDS011;2026;51.002;13.668;2023-06-04T06:34:27;9.50;;;2.97;;
4023;SDS011;2026;51.002;13.668;2023-06-04T06:39:31;5.50;;;3.20;;
4023;SDS011;2026;51.002;13.668;2023-06-04T06:44:36;3.53;;;2.47;;
4023;SDS011;2026;51.002;13.668;2023-06-04T06:49:39;2.67;;;2.47;;
4023;SDS011;2026;51.002;13.668;2023-06-04T06:54:42;7.37;;;3.17;;
4023;SDS011;2026;51.002;13.668;2023-06-04T06:59:46;3.90;;;3.03;;
4023;SDS011;2026;51.002;13.668;2023-06-04T07:04:49;5.30;;;3.30;;
4023;SDS011;2026;51.002;13.668;2023-06-04T07:09:52;6.70;;;3.87;;
4023;SDS011;2026;51.002;13.668;2023-06-04T07:14:56;5.10;;;3.80;;
4023;SDS011;2026;51.002;13.668;2023-06-04T07:19:59;7.10;;;4.30;;
4023;SDS011;2026;51.002;13.668;2023-06-04T07:25:03;6.70;;;4.03;;
4023;SDS011;2026;51.002;13.668;2023-06-04T07:30:08;5.70;;;3.90;;
4023;SDS011;2026;51.002;13.668;2023-06-04T07:35:12;5.27;;;3.57;;
4023;SDS011;2026;51.002;13.668;2023-06-04T07:40:15;5.43;;;3.27;;
4023;SDS011;2026;51.002;13.668;2023-06-04T07:45:19;4.10;;;3.03;;
4023;SDS011;2026;51.002;13.668;2023-06-04T07:50:22;5.57;;;2.60;;
4023;SDS011;2026;51.002;13.668;2023-06-04T07:55:26;2.43;;;2.23;;
4023;SDS011;2026;51.002;13.668;2023-06-04T08:00:30;4.73;;;2.43;;
4023;SDS011;2026;51.002;13.668;2023-06-04T08:05:34;4.57;;;2.30;;
4023;SDS011;2026;51.002;13.668;2023-06-04T08:10:38;2.60;;;2.00;;
4023;SDS011;2026;51.002;13.668;2023-06-04T08:15:43;2.77;;;2.37;;
4023;SDS011;2026;51.002;13.668;2023-06-04T08:20:46;2.67;;;2.00;;
4023;SDS011;2026;51.002;13.668;2023-06-04T08:25:50;3.30;;;2.27;;
4023;SDS011;2026;51.002;13.668;2023-06-04T08:30:54;3.30;;;2.10;;
4023;SDS011;2026;51.002;13.668;2023-06-04T08:35:57;4.80;;;2.10;;
4023;SDS011;2026;51.002;13.668;2023-06-04T08:41:01;2.43;;;1.97;;
4023;SDS011;2026;51.002;13.668;2023-06-04T08:46:13;2.53;;;2.00;;
4023;SDS011;2026;51.002;13.668;2023-06-04T08:51:20;3.63;;;1.90;;
4023;SDS011;2026;51.002;13.668;2023-06-04T08:56:23;3.50;;;2.30;;
4023;SDS011;2026;51.002;13.668;2023-06-04T09:01:28;3.50;;;2.20;;
4023;SDS011;2026;51.002;13.668;2023-06-04T09:06:32;6.53;;;2.20;;
4023;SDS011;2026;51.002;13.668;2023-06-04T09:11:38;3.73;;;2.20;;
4023;SDS011;2026;51.002;13.668;2023-06-04T09:16:46;3.83;;;2.27;;
4023;SDS011;2026;51.002;13.668;2023-06-04T09:21:50;2.57;;;1.87;;
4023;SDS011;2026;51.002;13.668;2023-06-04T09:26:54;2.80;;;1.90;;
4023;SDS011;2026;51.002;13.668;2023-06-04T09:31:59;2.33;;;1.80;;
4023;SDS011;2026;51.002;13.668;2023-06-04T09:37:02;5.55;;;2.30;;
4023;SDS011;2026;51.002;13.668;2023-06-04T09:42:05;4.90;;;2.13;;
4023;SDS011;2026;51.002;13.668;2023-06-04T09:47:09;2.00;;;1.80;;
4023;SDS011;2026;51.002;13.668;2023-06-04T09:52:13;3.00;;;1.80;;
4023;SDS011;2026;51.002;13.668;2023-06-04T09:57:16;2.55;;;2.05;;
4023;SDS011;2026;51.002;13.668;2023-06-04T10:02:23;2.17;;;1.83;;
4023;SDS011;2026;51.002;13.668;2023-06-04T10:07:31;2.20;;;1.80;;
4023;SDS011;2026;51.002;13.668;2023-06-04T10:12:38;1.90;;;1.63;;
4023;SDS011;2026;51.002;13.668;2023-06-04T10:17:44;2.88;;;1.80;;
4023;SDS011;2026;51.002;13.668;2023-06-04T10:22:47;2.40;;;1.85;;
4023;SDS011;2026;51.002;13.668;2023-06-04T10:27:50;3.63;;;1.98;;
4023;SDS011;2026;51.002;13.668;2023-06-04T10:32:55;4.05;;;1.88;;
4023;SDS011;2026;51.002;13.668;2023-06-04T10:38:06;4.55;;;1.90;;
4023;SDS011;2026;51.002;13.668;2023-06-04T10:43:10;2.90;;;1.58;;
4023;SDS011;2026;51.002;13.668;2023-06-04T10:48:15;5.93;;;2.00;;
4023;SDS011;2026;51.002;13.668;2023-06-04T10:53:19;1.90;;;1.75;;
4023;SDS011;2026;51.002;13.668;2023-06-04T10:58:31;2.60;;;1.90;;
4023;SDS011;2026;51.002;13.668;2023-06-04T11:03:36;1.73;;;1.63;;
4023;SDS011;2026;51.002;13.668;2023-06-04T11:08:39;2.53;;;1.92;;
4023;SDS011;2026;51.002;13.668;2023-06-04T11:13:42;2.20;;;1.50;;
4023;SDS011;2026;51.002;13.668;2023-06-04T11:18:55;5.63;;;1.90;;
4023;SDS011;2026;51.002;13.668;2023-06-04T11:23:58;3.97;;;1.80;;
4023;SDS011;2026;51.002;13.668;2023-06-04T11:29:06;4.25;;;2.38;;
4023;SDS011;2026;51.002;13.668;2023-06-04T11:34:11;3.28;;;1.67;;
4023;SDS011;2026;51.002;13.668;2023-06-04T11:39:33;4.78;;;1.80;;
4023;SDS011;2026;51.002;13.668;2023-06-04T11:44:39;2.87;;;1.90;;
4023;SDS011;2026;51.002;13.668;2023-06-04T11:49:47;1.95;;;1.75;;
4023;SDS011;2026;51.002;13.668;2023-06-04T11:54:51;2.67;;;1.87;;
4023;SDS011;2026;51.002;13.668;2023-06-04T11:59:54;4.23;;;1.87;;
4023;SDS011;2026;51.002;13.668;2023-06-04T12:04:58;2.40;;;1.85;;
4023;SDS011;2026;51.002;13.668;2023-06-04T12:10:05;4.70;;;1.80;;
4023;SDS011;2026;51.002;13.668;2023-06-04T12:15:09;2.08;;;1.88;;
4023;SDS011;2026;51.002;13.668;2023-06-04T12:20:14;2.08;;;1.80;;
4023;SDS011;2026;51.002;13.668;2023-06-04T12:25:23;4.55;;;2.60;;
4023;SDS011;2026;51.002;13.668;2023-06-04T12:30:36;4.60;;;2.30;;
4023;SDS011;2026;51.002;13.668;2023-06-04T12:35:41;2.67;;;2.05;;
4023;SDS011;2026;51.002;13.668;2023-06-04T12:40:46;3.25;;;2.17;;
4023;SDS011;2026;51.002;13.668;2023-06-04T12:45:49;4.97;;;1.87;;
4023;SDS011;2026;51.002;13.668;2023-06-04T12:50:53;3.50;;;2.17;;
4023;SDS011;2026;51.002;13.668;2023-06-04T12:55:56;3.40;;;2.10;;
4023;SDS011;2026;51.002;13.668;2023-06-04T13:01:00;2.85;;;1.73;;
4023;SDS011;2026;51.002;13.668;2023-06-04T13:06:05;3.85;;;2.20;;
4023;SDS011;2026;51.002;13.668;2023-06-04T13:11:08;2.40;;;2.15;;
4023;SDS011;2026;51.002;13.668;2023-06-04T13:16:11;4.57;;;1.88;;
4023;SDS011;2026;51.002;13.668;2023-06-04T13:21:15;4.75;;;2.33;;
4023;SDS011;2026;51.002;13.668;2023-06-04T13:26:18;2.90;;;1.98;;
4023;SDS011;2026;51.002;13.668;2023-06-04T13:31:23;2.37;;;2.17;;
4023;SDS011;2026;51.002;13.668;2023-06-04T13:36:27;3.00;;;2.37;;
4023;SDS011;2026;51.002;13.668;2023-06-04T13:41:30;2.20;;;1.83;;
4023;SDS011;2026;51.002;13.668;2023-06-04T13:46:33;4.28;;;2.20;;
4023;SDS011;2026;51.002;13.668;2023-06-04T13:51:38;2.10;;;1.90;;
4023;SDS011;2026;51.002;13.668;2023-06-04T13:56:41;2.80;;;2.25;;
4023;SDS011;2026;51.002;13.668;2023-06-04T14:01:44;2.78;;;2.20;;
4023;SDS011;2026;51.002;13.668;2023-06-04T14:06:48;3.53;;;2.30;;
4023;SDS011;2026;51.002;13.668;2023-06-04T14:11:51;2.58;;;2.15;;
4023;SDS011;2026;51.002;13.668;2023-06-04T14:16:54;2.40;;;2.08;;
4023;SDS011;2026;51.002;13.668;2023-06-04T14:22:00;3.25;;;2.17;;
4023;SDS011;2026;51.002;13.668;2023-06-04T14:27:03;2.58;;;2.38;;
4023;SDS011;2026;51.002;13.668;2023-06-04T14:32:08;3.60;;;2.20;;
4023;SDS011;2026;51.002;13.668;2023-06-04T14:37:12;4.43;;;2.40;;
4023;SDS011;2026;51.002;13.668;2023-06-04T14:42:15;2.70;;;2.30;;
4023;SDS011;2026;51.002;13.668;2023-06-04T14:47:18;8.35;;;1.65;;
4023;SDS011;2026;51.002;13.668;2023-06-04T14:52:22;6.73;;;2.17;;
4023;SDS011;2026;51.002;13.668;2023-06-04T14:57:25;2.70;;;2.50;;
4023;SDS011;2026;51.002;13.668;2023-06-04T15:02:28;3.53;;;2.30;;
4023;SDS011;2026;51.002;13.668;2023-06-04T15:07:33;4.67;;;2.53;;
4023;SDS011;2026;51.002;13.668;2023-06-04T15:12:36;4.30;;;2.13;;
4023;SDS011;2026;51.002;13.668;2023-06-04T15:17:40;3.93;;;2.10;;
4023;SDS011;2026;51.002;13.668;2023-06-04T15:22:48;2.43;;;2.13;;
4023;SDS011;2026;51.002;13.668;2023-06-04T15:27:51;2.87;;;2.20;;
4023;SDS011;2026;51.002;13.668;2023-06-04T15:32:54;5.07;;;2.47;;
4023;SDS011;2026;51.002;13.668;2023-06-04T15:38:03;2.35;;;2.00;;
4023;SDS011;2026;51.002;13.668;2023-06-04T15:43:06;2.80;;;2.20;;
4023;SDS011;2026;51.002;13.668;2023-06-04T15:48:09;2.08;;;1.65;;
4023;SDS011;2026;51.002;13.668;2023-06-04T15:53:13;8.43;;;5.90;;
4023;SDS011;2026;51.002;13.668;2023-06-04T15:58:16;2.23;;;1.60;;
4023;SDS011;2026;51.002;13.668;2023-06-04T16:03:19;5.35;;;2.13;;
4023;SDS011;2026;51.002;13.668;2023-06-04T16:08:24;2.20;;;2.00;;
4023;SDS011;2026;51.002;13.668;2023-06-04T16:13:27;2.63;;;2.20;;
4023;SDS011;2026;51.002;13.668;2023-06-04T16:18:30;3.93;;;2.17;;
4023;SDS011;2026;51.002;13.668;2023-06-04T16:23:34;2.30;;;2.10;;
4023;SDS011;2026;51.002;13.668;2023-06-04T16:28:38;4.95;;;2.42;;
4023;SDS011;2026;51.002;13.668;2023-06-04T16:33:41;2.85;;;2.05;;
4023;SDS011;2026;51.002;13.668;2023-06-04T16:38:45;3.53;;;2.00;;
4023;SDS011;2026;51.002;13.668;2023-06-04T16:43:49;4.25;;;2.00;;
4023;SDS011;2026;51.002;13.668;2023-06-04T16:48:52;2.88;;;2.42;;
4023;SDS011;2026;51.002;13.668;2023-06-04T16:53:57;2.47;;;2.10;;
4023;SDS011;2026;51.002;13.668;2023-06-04T16:59:00;4.43;;;2.10;;
4023;SDS011;2026;51.002;13.668;2023-06-04T17:04:03;3.92;;;2.20;;
4023;SDS011;2026;51.002;13.668;2023-06-04T17:09:07;2.40;;;2.20;;
4023;SDS011;2026;51.002;13.668;2023-06-04T17:14:10;5.32;;;2.17;;
4023;SDS011;2026;51.002;13.668;2023-06-04T17:19:13;2.95;;;2.08;;
4023;SDS011;2026;51.002;13.668;2023-06-04T17:24:18;4.30;;;2.30;;
4023;SDS011;2026;51.002;13.668;2023-06-04T17:29:21;8.48;;;3.30;;
4023;SDS011;2026;51.002;13.668;2023-06-04T17:34:25;8.10;;;2.47;;
4023;SDS011;2026;51.002;13.668;2023-06-04T17:39:29;5.80;;;2.50;;
4023;SDS011;2026;51.002;13.668;2023-06-04T17:44:33;4.20;;;2.90;;
4023;SDS011;2026;51.002;13.668;2023-06-04T17:49:36;4.10;;;2.70;;
4023;SDS011;2026;51.002;13.668;2023-06-04T17:54:40;5.40;;;3.57;;
4023;SDS011;2026;51.002;13.668;2023-06-04T17:59:43;3.03;;;2.40;;
4023;SDS011;2026;51.002;13.668;2023-06-04T18:04:46;4.30;;;2.07;;
4023;SDS011;2026;51.002;13.668;2023-06-04T18:09:52;3.90;;;2.13;;
4023;SDS011;2026;51.002;13.668;2023-06-04T18:14:55;3.00;;;2.10;;
4023;SDS011;2026;51.002;13.668;2023-06-04T18:19:57;5.70;;;2.30;;
4023;SDS011;2026;51.002;13.668;2023-06-04T18:25:02;3.60;;;2.30;;
4023;SDS011;2026;51.002;13.668;2023-06-04T18:30:07;3.33;;;2.53;;
4023;SDS011;2026;51.002;13.668;2023-06-04T18:35:11;2.50;;;2.10;;
4023;SDS011;2026;51.002;13.668;2023-06-04T18:40:15;4.40;;;2.33;;
4023;SDS011;2026;51.002;13.668;2023-06-04T18:45:18;4.43;;;2.97;;
4023;SDS011;2026;51.002;13.668;2023-06-04T18:50:21;2.40;;;2.20;;
4023;SDS011;2026;51.002;13.668;2023-06-04T18:55:26;2.20;;;2.00;;
4023;SDS011;2026;51.002;13.668;2023-06-04T19:00:29;4.67;;;2.80;;
4023;SDS011;2026;51.002;13.668;2023-06-04T19:05:32;9.87;;;2.83;;
4023;SDS011;2026;51.002;13.668;2023-06-04T19:10:36;3.90;;;2.57;;
4023;SDS011;2026;51.002;13.668;2023-06-04T19:15:39;2.60;;;2.40;;
4023;SDS011;2026;51.002;13.668;2023-06-04T19:20:43;2.43;;;2.03;;
4023;SDS011;2026;51.002;13.668;2023-06-04T19:25:47;4.00;;;2.30;;
4023;SDS011;2026;51.002;13.668;2023-06-04T19:30:50;3.77;;;2.50;;
4023;SDS011;2026;51.002;13.668;2023-06-04T19:35:53;9.40;;;2.93;;
4023;SDS011;2026;51.002;13.668;2023-06-04T19:40:58;4.60;;;3.00;;
4023;SDS011;2026;51.002;13.668;2023-06-04T19:46:02;6.40;;;2.97;;
4023;SDS011;2026;51.002;13.668;2023-06-04T19:51:05;3.00;;;2.37;;
4023;SDS011;2026;51.002;13.668;2023-06-04T19:56:10;3.73;;;2.73;;
4023;SDS011;2026;51.002;13.668;2023-06-04T20:01:13;4.60;;;2.60;;
4023;SDS011;2026;51.002;13.668;2023-06-04T20:06:17;3.00;;;2.60;;
4023;SDS011;2026;51.002;13.668;2023-06-04T20:11:21;2.90;;;2.30;;
4023;SDS011;2026;51.002;13.668;2023-06-04T20:16:25;3.10;;;2.37;;
4023;SDS011;2026;51.002;13.668;2023-06-04T20:21:28;3.07;;;2.70;;
4023;SDS011;2026;51.002;13.668;2023-06-04T20:26:36;4.20;;;2.87;;
4023;SDS011;2026;51.002;13.668;2023-06-04T20:31:40;3.70;;;3.10;;
4023;SDS011;2026;51.002;13.668;2023-06-04T20:36:43;6.03;;;3.73;;
4023;SDS011;2026;51.002;13.668;2023-06-04T20:41:48;4.70;;;3.50;;
4023;SDS011;2026;51.002;13.668;2023-06-04T20:46:51;8.73;;;4.17;;
4023;SDS011;2026;51.002;13.668;2023-06-04T20:51:54;4.20;;;3.10;;
4023;SDS011;2026;51.002;13.668;2023-06-04T20:56:58;4.03;;;2.90;;
4023;SDS011;2026;51.002;13.668;2023-06-04T21:02:01;5.50;;;3.07;;
4023;SDS011;2026;51.002;13.668;2023-06-04T21:07:04;6.23;;;3.17;;
4023;SDS011;2026;51.002;13.668;2023-06-04T21:12:09;3.53;;;2.90;;
4023;SDS011;2026;51.002;13.668;2023-06-04T21:17:12;4.73;;;3.20;;
4023;SDS011;2026;51.002;13.668;2023-06-04T21:35:35;5.10;;;3.43;;
4023;SDS011;2026;51.002;13.668;2023-06-04T21:40:43;6.63;;;3.77;;
4023;SDS011;2026;51.002;13.668;2023-06-04T21:45:46;5.33;;;3.60;;
4023;SDS011;2026;51.002;13.668;2023-06-04T21:50:51;5.93;;;3.23;;
4023;SDS011;2026;51.002;13.668;2023-06-04T21:55:54;5.57;;;3.50;;
4023;SDS011;2026;51.002;13.668;2023-06-04T22:00:56;5.73;;;3.73;;
4023;SDS011;2026;51.002;13.668;2023-06-04T22:06:01;5.10;;;3.87;;
4023;SDS011;2026;51.002;13.668;2023-06-04T22:11:05;8.70;;;3.70;;
4023;SDS011;2026;51.002;13.668;2023-06-04T22:16:08;5.20;;;3.50;;
4023;SDS011;2026;51.002;13.668;2023-06-04T22:21:12;5.07;;;3.73;;
4023;SDS011;2026;51.002;13.668;2023-06-04T22:26:15;5.03;;;3.17;;
4023;SDS011;2026;51.002;13.668;2023-06-04T22:31:37;8.37;;;3.90;;
4023;SDS011;2026;51.002;13.668;2023-06-04T22:36:42;3.47;;;3.00;;
4023;SDS011;2026;51.002;13.668;2023-06-04T22:41:46;4.97;;;3.43;;
4023;SDS011;2026;51.002;13.668;2023-06-04T22:46:49;9.20;;;3.57;;
4023;SDS011;2026;51.002;13.668;2023-06-04T22:51:53;3.90;;;3.00;;
4023;SDS011;2026;51.002;13.668;2023-06-04T22:56:56;6.17;;;3.40;;
4023;SDS011;2026;51.002;13.668;2023-06-04T23:01:59;4.30;;;3.30;;
4023;SDS011;2026;51.002;13.668;2023-06-04T23:07:04;6.40;;;3.47;;
4023;SDS011;2026;51.002;13.668;2023-06-04T23:12:07;8.90;;;3.80;;
4023;SDS011;2026;51.002;13.668;2023-06-04T23:17:11;3.83;;;3.13;;
4023;SDS011;2026;51.002;13.668;2023-06-04T23:22:15;4.37;;;2.90;;
4023;SDS011;2026;51.002;13.668;2023-06-04T23:27:18;3.60;;;3.10;;
4023;SDS011;2026;51.002;13.668;2023-06-04T23:32:21;6.27;;;3.77;;
4023;SDS011;2026;51.002;13.668;2023-06-04T23:37:26;5.00;;;3.47;;
4023;SDS011;2026;51.002;13.668;2023-06-04T23:42:29;5.90;;;3.60;;
4023;SDS011;2026;51.002;13.668;2023-06-04T23:47:32;4.60;;;3.50;;
4023;SDS011;2026;51.002;13.668;2023-06-04T23:52:36;7.50;;;3.70;;
4023;SDS011;2026;51.002;13.668;2023-06-04T23:57:40;6.47;;;3.23;;
